createdAt,value
2022-12-17T00:01:39.144Z,88.32
2022-12-17T00:06:59.362Z,88.65
2022-12-17T00:12:19.433Z,88.53
2022-12-17T00:17:39.424Z,88.79
2022-12-17T00:23:00.605Z,89.29
2022-12-17T00:28:20.825Z,88.51
2022-12-17T00:33:41.108Z,89.39
2022-12-17T00:39:04.451Z,88.83
2022-12-17T00:44:24.778Z,88.31
2022-12-17T00:49:58.784Z,88.49
2022-12-17T00:55:18.985Z,88.11
2022-12-17T01:00:39.315Z,88.22
2022-12-17T01:05:59.695Z,88.61
2022-12-17T01:11:29.897Z,89.10
2022-12-17T01:16:50.024Z,88.98
2022-12-17T01:22:10.464Z,88.33
2022-12-17T01:27:30.792Z,89.04
2022-12-17T01:32:51.027Z,89.42
2022-12-17T01:38:12.498Z,89.68
2022-12-17T01:43:48.912Z,88.97
2022-12-17T01:49:09.168Z,89.25
2022-12-17T01:54:30.801Z,89.32
2022-12-17T02:00:06.701Z,89.63
2022-12-17T02:05:34.027Z,89.41
2022-12-17T02:11:13.441Z,89.53
2022-12-17T02:16:45.169Z,89.48
2022-12-17T02:22:09.384Z,90.61
2022-12-17T02:27:30.785Z,90.98
2022-12-17T02:32:53.099Z,90.38
2022-12-17T02:38:14.343Z,90.75
2022-12-17T02:43:36.019Z,91.46
2022-12-17T02:48:56.670Z,91.89
2022-12-17T02:54:21.632Z,92.25
2022-12-17T02:59:42.171Z,91.01
2022-12-17T03:05:35.655Z,91.28
2022-12-17T03:10:48.611Z,90.94
2022-12-17T03:16:08.954Z,91.84
2022-12-17T03:21:29.275Z,91.79
2022-12-17T03:26:50.117Z,92.09
2022-12-17T03:32:11.371Z,91.93
2022-12-17T03:37:31.623Z,91.98
2022-12-17T03:42:51.883Z,92.23
2022-12-17T03:48:31.915Z,92.51
2022-12-17T03:53:52.040Z,91.82
2022-12-17T03:59:12.468Z,93.05
2022-12-17T04:04:32.607Z,93.03
2022-12-17T04:09:53.017Z,93.04
2022-12-17T04:15:13.249Z,93.34
2022-12-17T04:20:33.850Z,93.34
2022-12-17T04:25:53.994Z,93.60
2022-12-17T04:31:14.249Z,93.44
2022-12-17T04:36:34.589Z,92.34
2022-12-17T04:41:54.629Z,92.36
2022-12-17T04:47:14.911Z,91.97
2022-12-17T04:52:35.193Z,92.39
2022-12-17T04:57:55.348Z,91.98
2022-12-17T05:03:29.614Z,92.29
2022-12-17T05:08:49.519Z,92.55
2022-12-17T05:14:09.690Z,92.35
2022-12-17T05:19:29.918Z,93.50
2022-12-17T05:24:50.286Z,94.57
2022-12-17T05:30:10.445Z,94.29
2022-12-17T05:35:30.772Z,93.15
2022-12-17T05:40:50.964Z,93.21
2022-12-17T05:46:11.240Z,93.00
2022-12-17T05:51:35.708Z,92.31
2022-12-17T05:56:58.413Z,92.36
2022-12-17T06:02:18.675Z,92.59
2022-12-17T06:07:38.842Z,91.55
2022-12-17T06:12:59.057Z,92.32
2022-12-17T06:18:19.342Z,92.75
2022-12-17T06:23:39.674Z,92.57
2022-12-17T06:29:00.922Z,92.38
2022-12-17T06:34:21.270Z,92.25
2022-12-17T06:39:41.702Z,92.74
2022-12-17T06:45:01.871Z,92.49
2022-12-17T06:50:23.570Z,92.75
2022-12-17T06:55:43.845Z,92.72
2022-12-17T07:01:22.060Z,92.87
2022-12-17T07:06:42.131Z,92.83
2022-12-17T07:12:02.429Z,92.33
2022-12-17T07:17:22.543Z,91.43
2022-12-17T07:22:42.679Z,93.40
2022-12-17T07:28:11.397Z,92.54
2022-12-17T07:33:31.632Z,92.66
2022-12-17T07:38:52.290Z,92.54
2022-12-17T07:44:12.560Z,93.35
2022-12-17T07:49:32.749Z,93.82
2022-12-17T07:54:53.048Z,93.71
2022-12-17T08:00:12.982Z,93.60
2022-12-17T08:05:46.835Z,93.05
2022-12-17T08:11:08.237Z,93.33
2022-12-17T08:16:28.498Z,92.73
2022-12-17T08:21:48.737Z,92.42
2022-12-17T08:27:09.118Z,93.48
2022-12-17T08:32:29.834Z,94.10
2022-12-17T08:37:50.143Z,94.35
2022-12-17T08:43:15.488Z,95.01
2022-12-17T08:48:35.710Z,94.90
2022-12-17T08:53:56.339Z,94.37
2022-12-17T08:59:16.530Z,94.98
2022-12-17T09:04:37.256Z,95.06
2022-12-17T09:09:57.305Z,96.48
2022-12-17T09:15:17.598Z,97.40
2022-12-17T09:20:37.733Z,97.30
2022-12-17T09:25:58.386Z,97.44
2022-12-17T09:31:19.687Z,96.97
2022-12-17T09:36:40.556Z,96.80
2022-12-17T09:42:15.392Z,95.52
2022-12-17T09:47:54.169Z,94.19
2022-12-17T09:53:14.340Z,94.83
2022-12-17T09:58:37.833Z,94.26
2022-12-17T10:04:00.834Z,94.13
2022-12-17T10:09:31.295Z,95.21
2022-12-17T10:14:51.959Z,95.12
2022-12-17T10:20:13.627Z,95.25
2022-12-17T10:25:37.029Z,95.00
2022-12-17T10:30:57.780Z,95.76
2022-12-17T10:36:18.231Z,97.01
2022-12-17T10:41:47.018Z,96.50
2022-12-17T10:47:15.284Z,95.54
2022-12-17T10:52:55.729Z,96.64
2022-12-17T10:58:21.851Z,97.05
2022-12-17T11:03:55.593Z,96.42
2022-12-17T11:09:19.789Z,94.41
2022-12-17T11:14:39.954Z,94.34
2022-12-17T11:20:09.220Z,94.39
2022-12-17T11:25:41.684Z,93.35
2022-12-17T11:31:24.030Z,94.77
2022-12-17T11:36:54.351Z,95.14
2022-12-17T11:42:26.981Z,94.42
2022-12-17T11:47:47.255Z,94.07
2022-12-17T11:53:16.459Z,92.97
2022-12-17T11:58:56.334Z,93.18
2022-12-17T12:04:25.680Z,92.21
2022-12-17T12:10:07.862Z,90.51
2022-12-17T12:15:51.157Z,91.28
2022-12-17T12:21:27.451Z,91.10
2022-12-17T12:27:17.146Z,91.30
2022-12-17T12:32:45.799Z,90.40
2022-12-17T12:38:06.594Z,90.78
2022-12-17T12:43:39.135Z,90.69
2022-12-17T12:49:32.244Z,89.33
2022-12-17T12:55:04.801Z,89.17
2022-12-17T13:00:25.501Z,89.58
2022-12-17T13:05:39.959Z,89.89
2022-12-17T13:10:41.672Z,90.35
2022-12-17T13:15:49.158Z,90.04
2022-12-17T13:21:00.105Z,89.10
2022-12-17T13:26:39.959Z,89.55
2022-12-17T13:32:19.098Z,90.21
2022-12-17T13:37:40.396Z,89.16
2022-12-17T13:42:46.076Z,88.39
2022-12-17T13:47:59.031Z,88.29
2022-12-17T13:53:10.660Z,89.72
2022-12-17T13:58:24.229Z,89.10
2022-12-17T14:03:49.892Z,88.79
2022-12-17T14:08:48.707Z,89.09
2022-12-17T14:13:50.560Z,89.67
2022-12-17T14:18:59.293Z,89.95
2022-12-17T14:24:01.191Z,90.34
2022-12-17T14:29:12.747Z,90.47
2022-12-17T14:34:14.518Z,90.74
2022-12-17T14:39:31.689Z,90.13
2022-12-17T14:44:33.690Z,90.91
2022-12-17T14:49:37.582Z,90.29
2022-12-17T14:54:45.288Z,90.16
2022-12-17T14:59:47.064Z,90.20
2022-12-17T15:04:49.340Z,89.44
2022-12-17T15:09:52.819Z,89.30
2022-12-17T15:14:54.467Z,89.22
2022-12-17T15:19:56.495Z,88.89
2022-12-17T15:24:58.208Z,88.33
2022-12-17T15:29:59.890Z,88.18
2022-12-17T15:35:01.847Z,88.39
2022-12-17T15:40:05.458Z,88.38
2022-12-17T15:45:07.890Z,88.61
2022-12-17T15:50:10.083Z,89.00
2022-12-17T15:55:15.432Z,89.24
2022-12-17T16:00:17.336Z,90.06
2022-12-17T16:05:20.956Z,91.74
2022-12-17T16:10:22.934Z,92.26
2022-12-17T16:15:24.794Z,93.33
2022-12-17T16:20:26.450Z,94.17
2022-12-17T16:25:28.148Z,95.10
2022-12-17T16:30:29.807Z,94.99
2022-12-17T16:35:31.499Z,95.08
2022-12-17T16:40:33.163Z,94.29
2022-12-17T16:45:34.823Z,93.71
2022-12-17T16:50:36.477Z,93.75
2022-12-17T16:55:43.059Z,92.71
2022-12-17T17:00:54.043Z,92.23
2022-12-17T17:06:00.180Z,92.54
2022-12-17T17:11:21.410Z,92.60
2022-12-17T17:16:24.513Z,92.38
2022-12-17T17:21:29.622Z,92.57
2022-12-17T17:26:33.162Z,92.54
2022-12-17T17:32:08.413Z,93.23
2022-12-17T17:36:56.818Z,94.08
2022-12-17T17:41:58.873Z,94.77
2022-12-17T17:47:00.849Z,95.34
2022-12-17T17:52:11.451Z,95.96
2022-12-17T17:57:13.720Z,96.89
2022-12-17T18:02:15.499Z,97.16
2022-12-17T18:07:25.267Z,96.30
2022-12-17T18:12:46.272Z,97.33
2022-12-17T18:17:51.329Z,96.98
2022-12-17T18:22:53.014Z,96.46
2022-12-17T18:27:54.947Z,96.79
2022-12-17T18:32:57.457Z,97.60
2022-12-17T18:37:59.424Z,97.04
2022-12-17T18:43:19.272Z,97.75
2022-12-17T18:48:21.018Z,98.12
2022-12-17T18:53:24.583Z,98.70
2022-12-17T18:58:26.234Z,98.51
2022-12-17T19:03:27.943Z,98.79
2022-12-17T19:08:29.599Z,98.90
2022-12-17T19:13:33.221Z,98.54
2022-12-17T19:18:35.294Z,98.97
2022-12-17T19:23:37.915Z,98.89
2022-12-17T19:28:41.350Z,100.00
2022-12-17T19:33:43.166Z,99.41
2022-12-17T19:38:45.943Z,97.87
2022-12-17T19:43:53.235Z,98.25
2022-12-17T19:48:57.327Z,98.52
2022-12-17T19:54:06.507Z,98.07
2022-12-17T19:59:10.917Z,97.09
2022-12-17T20:04:14.494Z,96.69
2022-12-17T20:09:17.518Z,96.40
2022-12-17T20:14:21.999Z,96.57
2022-12-17T20:19:31.806Z,96.92
2022-12-17T20:24:33.608Z,96.65
2022-12-17T20:29:35.891Z,97.29
2022-12-17T20:34:37.600Z,96.53
2022-12-17T20:39:39.271Z,97.45
2022-12-17T20:44:41.546Z,96.09
2022-12-17T20:49:43.217Z,96.39
2022-12-17T20:54:44.930Z,95.82
2022-12-17T20:59:46.687Z,94.27
2022-12-17T21:04:48.351Z,95.11
2022-12-17T21:09:50.050Z,94.23
2022-12-17T21:14:51.727Z,94.18
2022-12-17T21:19:53.432Z,94.31
2022-12-17T21:24:55.121Z,94.41
2022-12-17T21:29:57.280Z,93.51
2022-12-17T21:34:59.311Z,92.57
2022-12-17T21:40:01.972Z,92.29
2022-12-17T21:45:04.037Z,92.04
2022-12-17T21:50:06.399Z,92.58
2022-12-17T21:55:08.308Z,91.95
2022-12-17T22:00:10.672Z,92.14
2022-12-17T22:05:16.343Z,93.51
2022-12-17T22:10:38.894Z,93.73
2022-12-17T22:15:46.177Z,92.87
2022-12-17T22:20:58.410Z,92.31
2022-12-17T22:26:00.085Z,92.01
2022-12-17T22:31:25.273Z,92.82
2022-12-17T22:36:59.524Z,92.32
2022-12-17T22:44:38.631Z,91.67
2022-12-17T22:47:31.133Z,91.49
2022-12-17T22:52:32.858Z,91.05
2022-12-17T22:57:38.214Z,90.65
2022-12-17T23:02:40.792Z,91.05
2022-12-17T23:07:42.506Z,90.49
2022-12-17T23:12:51.052Z,90.33
2022-12-17T23:17:55.717Z,90.44
2022-12-17T23:22:57.683Z,90.33
2022-12-17T23:27:59.807Z,90.35
2022-12-17T23:33:01.479Z,91.38
2022-12-17T23:38:03.162Z,90.89
2022-12-17T23:43:04.837Z,90.56
2022-12-17T23:48:07.928Z,90.56
2022-12-17T23:53:09.600Z,90.88
2022-12-17T23:58:11.283Z,90.07
